createdAt,value
2022-09-27T00:00:43.244Z,1.73
2022-09-27T00:03:11.387Z,1.93
2022-09-27T00:05:38.616Z,1.80
2022-09-27T00:08:05.781Z,1.80
2022-09-27T00:10:32.773Z,1.67
2022-09-27T00:12:59.858Z,1.87
2022-09-27T00:15:27.079Z,1.90
2022-09-27T00:17:54.038Z,1.43
2022-09-27T00:20:21.521Z,1.63
2022-09-27T00:22:49.500Z,1.40
2022-09-27T00:25:17.039Z,1.70
2022-09-27T00:27:44.237Z,1.60
2022-09-27T00:30:11.938Z,2.13
2022-09-27T00:32:40.545Z,1.60
2022-09-27T00:35:08.552Z,1.30
2022-09-27T00:37:35.762Z,1.60
2022-09-27T00:40:02.685Z,2.13
2022-09-27T00:42:29.695Z,1.60
2022-09-27T00:45:04.920Z,1.30
2022-09-27T00:47:47.711Z,1.00
2022-09-27T00:50:32.494Z,1.93
2022-09-27T00:53:07.316Z,1.37
2022-09-27T00:55:40.332Z,1.50
2022-09-27T00:58:08.383Z,1.33
2022-09-27T01:00:38.140Z,1.30
2022-09-27T01:03:08.837Z,1.40
2022-09-27T01:05:35.779Z,1.30
2022-09-27T01:08:02.967Z,1.67
2022-09-27T01:10:37.445Z,1.33
2022-09-27T01:13:07.159Z,1.30
2022-09-27T01:15:34.052Z,1.23
2022-09-27T01:18:25.469Z,1.40
2022-09-27T01:21:22.278Z,1.60
2022-09-27T01:24:10.676Z,1.23
2022-09-27T01:26:49.671Z,1.60
2022-09-27T01:29:46.303Z,1.30
2022-09-27T01:32:22.560Z,1.30
2022-09-27T01:35:11.192Z,1.10
2022-09-27T01:37:46.595Z,1.47
2022-09-27T01:40:24.970Z,1.27
2022-09-27T01:43:07.610Z,1.10
2022-09-27T01:45:40.944Z,1.30
2022-09-27T01:48:37.564Z,1.40
2022-09-27T01:51:34.105Z,1.17
2022-09-27T01:54:04.239Z,1.40
2022-09-27T01:56:43.692Z,1.47
2022-09-27T01:59:20.161Z,1.10
2022-09-27T02:01:50.991Z,1.40
2022-09-27T02:04:26.144Z,1.20
2022-09-27T02:06:59.685Z,1.37
2022-09-27T02:09:30.823Z,1.40
2022-09-27T02:12:03.699Z,1.53
2022-09-27T02:14:41.836Z,1.50
2022-09-27T02:17:20.547Z,1.60
2022-09-27T02:19:56.449Z,1.57
2022-09-27T02:22:35.326Z,1.53
2022-09-27T02:25:34.937Z,1.47
2022-09-27T02:28:28.704Z,1.80
2022-09-27T02:30:56.325Z,1.87
2022-09-27T02:33:44.899Z,1.50
2022-09-27T02:36:12.285Z,1.30
2022-09-27T02:38:40.060Z,1.70
2022-09-27T02:41:17.854Z,1.80
2022-09-27T02:43:47.809Z,1.17
2022-09-27T02:46:24.483Z,1.30
2022-09-27T02:49:00.215Z,1.70
2022-09-27T02:51:54.870Z,1.40
2022-09-27T02:54:47.602Z,2.20
2022-09-27T02:57:43.830Z,1.40
2022-09-27T03:00:14.535Z,1.60
2022-09-27T03:03:09.970Z,1.80
2022-09-27T03:05:47.234Z,1.20
2022-09-27T03:08:14.853Z,1.40
2022-09-27T03:10:42.000Z,1.67
2022-09-27T03:13:08.985Z,1.50
2022-09-27T03:15:35.977Z,1.90
2022-09-27T03:18:03.601Z,1.57
2022-09-27T03:20:31.563Z,1.40
2022-09-27T03:22:58.752Z,2.63
2022-09-27T03:25:29.595Z,1.50
2022-09-27T03:27:56.509Z,2.27
2022-09-27T03:30:23.522Z,1.70
2022-09-27T03:32:50.566Z,1.60
2022-09-27T03:35:17.611Z,1.60
2022-09-27T03:37:45.023Z,1.50
2022-09-27T03:40:11.959Z,1.23
2022-09-27T03:42:39.737Z,1.80
2022-09-27T03:45:07.253Z,1.47
2022-09-27T03:47:34.304Z,1.33
2022-09-27T03:50:01.229Z,1.93
2022-09-27T03:52:28.261Z,1.67
2022-09-27T03:54:59.724Z,1.43
2022-09-27T03:57:30.837Z,1.50
2022-09-27T03:59:59.993Z,1.27
2022-09-27T04:02:29.197Z,1.50
2022-09-27T04:04:56.265Z,1.77
2022-09-27T04:07:23.761Z,1.43
2022-09-27T04:09:50.625Z,1.37
2022-09-27T04:12:17.599Z,1.40
2022-09-27T04:14:44.608Z,1.90
2022-09-27T04:17:11.586Z,1.63
2022-09-27T04:19:38.554Z,1.77
2022-09-27T04:22:05.612Z,1.60
2022-09-27T04:24:33.077Z,1.50
2022-09-27T04:27:00.012Z,1.57
2022-09-27T04:29:27.069Z,1.40
2022-09-27T04:31:54.206Z,2.00
2022-09-27T04:34:45.412Z,1.70
2022-09-27T04:37:13.049Z,1.93
2022-09-27T04:39:40.149Z,1.50
2022-09-27T04:42:07.406Z,1.43
2022-09-27T04:44:34.318Z,1.40
2022-09-27T04:47:01.293Z,1.40
2022-09-27T04:49:28.423Z,1.40
2022-09-27T04:51:56.347Z,1.50
2022-09-27T04:54:23.719Z,1.63
2022-09-27T04:56:50.711Z,1.90
2022-09-27T04:59:18.003Z,1.93
2022-09-27T05:01:45.521Z,1.73
2022-09-27T05:04:12.636Z,1.43
2022-09-27T05:06:39.649Z,1.50
2022-09-27T05:09:06.564Z,1.37
2022-09-27T05:11:33.825Z,1.40
2022-09-27T05:14:00.649Z,1.50
2022-09-27T05:16:30.791Z,1.37
2022-09-27T05:19:00.897Z,1.70
2022-09-27T05:21:27.802Z,2.20
2022-09-27T05:23:54.778Z,2.43
2022-09-27T05:26:21.805Z,1.53
2022-09-27T05:28:49.081Z,1.37
2022-09-27T05:31:16.335Z,1.60
2022-09-27T05:33:43.529Z,1.60
2022-09-27T05:36:10.564Z,1.33
2022-09-27T05:38:37.564Z,1.30
2022-09-27T05:41:05.597Z,1.57
2022-09-27T05:43:32.699Z,1.60
2022-09-27T05:46:00.931Z,2.07
2022-09-27T05:48:30.550Z,1.90
2022-09-27T05:50:57.446Z,1.93
2022-09-27T05:53:24.486Z,1.87
2022-09-27T05:55:51.814Z,1.57
2022-09-27T05:58:18.823Z,1.30
2022-09-27T06:00:45.959Z,1.83
2022-09-27T06:03:14.096Z,1.50
2022-09-27T06:05:41.492Z,1.40
2022-09-27T06:08:11.626Z,1.30
2022-09-27T06:10:40.075Z,1.40
2022-09-27T06:13:18.307Z,1.30
2022-09-27T06:15:47.431Z,2.27
2022-09-27T06:18:18.383Z,2.73
2022-09-27T06:20:45.457Z,1.40
2022-09-27T06:23:15.684Z,1.70
2022-09-27T06:25:42.724Z,1.50
2022-09-27T06:28:10.932Z,1.27
2022-09-27T06:30:43.417Z,1.50
2022-09-27T06:33:13.217Z,1.57
2022-09-27T06:35:42.512Z,1.70
2022-09-27T06:38:16.393Z,1.27
2022-09-27T06:40:45.750Z,2.40
2022-09-27T06:43:15.370Z,1.40
2022-09-27T06:45:43.003Z,1.20
2022-09-27T06:48:13.116Z,1.57
2022-09-27T06:50:44.833Z,2.70
2022-09-27T06:53:13.625Z,14.00
2022-09-27T06:55:41.308Z,4.70
2022-09-27T06:58:28.474Z,2.47
2022-09-27T07:00:55.511Z,5.03
2022-09-27T07:03:30.747Z,20.80
2022-09-27T07:06:05.424Z,6.80
2022-09-27T07:08:34.650Z,1.30
2022-09-27T07:11:05.175Z,2.00
2022-09-27T07:13:34.777Z,1.33
2022-09-27T07:16:02.210Z,1.60
2022-09-27T07:18:29.566Z,1.90
2022-09-27T07:21:00.264Z,1.53
2022-09-27T07:23:27.885Z,2.10
2022-09-27T07:25:54.965Z,44.57
2022-09-27T07:28:22.480Z,2.67
2022-09-27T07:30:49.997Z,1.73
2022-09-27T07:33:17.143Z,1.87
2022-09-27T07:35:44.337Z,2.13
2022-09-27T07:38:13.495Z,1.90
2022-09-27T07:40:41.484Z,2.07
2022-09-27T07:43:09.608Z,1.87
2022-09-27T07:45:37.704Z,1.80
2022-09-27T07:48:09.032Z,1.50
2022-09-27T07:50:36.275Z,1.70
2022-09-27T07:53:04.936Z,1.50
2022-09-27T07:55:32.264Z,1.60
2022-09-27T07:58:10.525Z,1.57
2022-09-27T08:00:40.325Z,2.03
2022-09-27T08:03:08.695Z,3.63
2022-09-27T08:05:36.767Z,1.40
2022-09-27T08:08:04.726Z,1.60
2022-09-27T08:10:33.635Z,1.63
2022-09-27T08:13:05.084Z,2.67
2022-09-27T08:15:33.346Z,1.50
2022-09-27T08:18:00.280Z,1.70
2022-09-27T08:20:27.372Z,1.57
2022-09-27T08:22:54.992Z,1.80
2022-09-27T08:25:25.058Z,1.70
2022-09-27T08:27:57.260Z,1.63
2022-09-27T08:30:25.041Z,1.77
2022-09-27T08:32:56.535Z,1.90
2022-09-27T08:35:23.843Z,2.40
2022-09-27T08:37:55.480Z,1.70
2022-09-27T08:40:27.837Z,1.73
2022-09-27T08:43:09.678Z,2.37
2022-09-27T08:45:50.933Z,2.10
2022-09-27T08:48:18.781Z,2.50
2022-09-27T08:50:48.350Z,2.40
2022-09-27T08:53:23.549Z,2.73
2022-09-27T08:55:56.868Z,2.77
2022-09-27T08:58:29.992Z,2.70
2022-09-27T09:01:03.393Z,2.37
2022-09-27T09:03:34.278Z,1.97
2022-09-27T09:06:16.348Z,2.50
2022-09-27T09:08:52.383Z,2.63
2022-09-27T09:11:57.700Z,2.40
2022-09-27T09:14:49.222Z,3.30
2022-09-27T09:18:05.032Z,2.90
2022-09-27T09:21:07.923Z,3.10
2022-09-27T09:23:37.690Z,3.50
2022-09-27T09:26:23.025Z,3.03
2022-09-27T09:29:07.911Z,3.50
2022-09-27T09:31:51.990Z,5.77
2022-09-27T09:35:02.428Z,5.93
2022-09-27T09:37:46.319Z,5.50
2022-09-27T09:40:28.182Z,4.17
2022-09-27T09:43:06.477Z,3.77
2022-09-27T09:46:09.554Z,4.80
2022-09-27T09:48:50.899Z,3.40
2022-09-27T09:51:22.792Z,3.43
2022-09-27T09:54:06.830Z,4.40
2022-09-27T09:56:38.617Z,4.10
2022-09-27T09:59:12.346Z,3.50
2022-09-27T10:01:45.076Z,4.50
2022-09-27T10:04:32.891Z,4.13
2022-09-27T10:07:01.540Z,5.50
2022-09-27T10:09:29.437Z,7.03
2022-09-27T10:11:57.036Z,6.43
2022-09-27T10:14:26.975Z,6.03
2022-09-27T10:16:58.780Z,5.30
2022-09-27T10:19:31.987Z,5.87
2022-09-27T10:22:03.905Z,5.50
2022-09-27T10:24:54.339Z,5.07
2022-09-27T10:27:21.488Z,5.50
2022-09-27T10:29:57.926Z,5.13
2022-09-27T10:32:31.609Z,7.43
2022-09-27T10:35:23.792Z,6.33
2022-09-27T10:37:52.649Z,6.73
2022-09-27T10:40:31.482Z,8.17
2022-09-27T10:42:58.758Z,7.00
2022-09-27T10:45:32.081Z,7.97
2022-09-27T10:48:02.947Z,7.13
2022-09-27T10:50:49.564Z,8.43
2022-09-27T10:53:20.870Z,8.07
2022-09-27T10:55:50.996Z,8.23
2022-09-27T10:58:29.943Z,8.03
2022-09-27T11:01:15.152Z,8.63
2022-09-27T11:03:57.573Z,8.70
2022-09-27T11:06:24.545Z,9.00
2022-09-27T11:08:52.797Z,9.47
2022-09-27T11:11:23.802Z,10.17
2022-09-27T11:14:07.711Z,10.23
2022-09-27T11:17:11.697Z,9.70
2022-09-27T11:20:09.071Z,9.63
2022-09-27T11:22:54.866Z,9.77
2022-09-27T11:25:46.700Z,9.70
2022-09-27T11:28:34.164Z,11.10
2022-09-27T11:31:26.043Z,11.73
2022-09-27T11:34:22.027Z,11.43
2022-09-27T11:37:12.454Z,12.43
2022-09-27T11:40:07.222Z,12.97
2022-09-27T11:42:40.005Z,13.10
2022-09-27T11:46:10.837Z,12.40
2022-09-27T11:48:53.972Z,12.30
2022-09-27T11:51:33.261Z,12.37
2022-09-27T11:54:35.379Z,12.90
2022-09-27T11:57:34.938Z,12.23
2022-09-27T12:00:33.818Z,11.20
2022-09-27T12:03:28.564Z,13.20
2022-09-27T12:06:06.993Z,11.57
2022-09-27T12:08:58.675Z,11.00
2022-09-27T12:11:46.677Z,12.97
2022-09-27T12:14:19.204Z,12.37
2022-09-27T12:16:48.204Z,13.20
2022-09-27T12:19:30.050Z,11.50
2022-09-27T12:22:01.184Z,12.20
2022-09-27T12:24:30.211Z,11.20
2022-09-27T12:27:09.282Z,12.20
2022-09-27T12:29:41.897Z,12.23
2022-09-27T12:32:22.204Z,14.37
2022-09-27T12:35:15.698Z,11.70
2022-09-27T12:37:58.564Z,12.17
2022-09-27T12:40:51.330Z,12.70
2022-09-27T12:43:19.716Z,12.80
2022-09-27T12:46:24.185Z,12.57
2022-09-27T12:49:05.791Z,13.07
2022-09-27T12:51:52.019Z,11.90
2022-09-27T12:54:38.689Z,11.73
2022-09-27T12:57:50.393Z,11.20
2022-09-27T13:00:26.284Z,10.93
2022-09-27T13:03:25.810Z,11.57
2022-09-27T13:06:12.327Z,11.03
2022-09-27T13:09:01.725Z,12.00
2022-09-27T13:11:47.689Z,10.37
2022-09-27T13:14:27.336Z,11.17
2022-09-27T13:16:54.827Z,10.83
2022-09-27T13:19:38.160Z,11.87
2022-09-27T13:22:27.878Z,11.87
2022-09-27T13:24:55.674Z,11.20
2022-09-27T13:27:28.827Z,9.63
2022-09-27T13:30:20.026Z,10.07
2022-09-27T13:33:14.257Z,9.50
2022-09-27T13:35:41.242Z,10.70
2022-09-27T13:38:23.520Z,11.23
2022-09-27T13:40:50.900Z,10.97
2022-09-27T13:43:43.916Z,10.70
2022-09-27T13:46:21.204Z,10.13
2022-09-27T13:49:15.987Z,10.43
2022-09-27T13:51:46.260Z,9.77
2022-09-27T13:54:39.081Z,9.77
2022-09-27T13:57:37.825Z,9.93
2022-09-27T14:00:10.382Z,9.40
2022-09-27T14:02:45.667Z,10.43
2022-09-27T14:05:20.607Z,10.17
2022-09-27T14:07:50.821Z,8.87
2022-09-27T14:10:23.044Z,9.97
2022-09-27T14:12:52.250Z,9.77
2022-09-27T14:15:26.598Z,10.33
2022-09-27T14:17:54.632Z,9.87
2022-09-27T14:20:41.921Z,10.03
2022-09-27T14:23:26.274Z,9.60
2022-09-27T14:25:55.642Z,9.90
2022-09-27T14:28:40.680Z,9.03
2022-09-27T14:31:18.644Z,9.07
2022-09-27T14:33:46.235Z,9.03
2022-09-27T14:36:46.217Z,8.93
2022-09-27T14:39:25.507Z,8.30
2022-09-27T14:41:53.000Z,8.73
2022-09-27T14:44:24.777Z,10.10
2022-09-27T14:47:27.890Z,8.63
2022-09-27T14:50:16.872Z,7.53
2022-09-27T14:52:45.539Z,7.80
2022-09-27T14:55:19.852Z,8.50
2022-09-27T14:57:53.286Z,9.17
2022-09-27T15:00:23.920Z,7.83
2022-09-27T15:02:57.349Z,8.30
2022-09-27T15:05:30.611Z,7.73
2022-09-27T15:08:01.354Z,8.63
2022-09-27T15:10:33.588Z,8.87
2022-09-27T15:13:03.730Z,8.23
2022-09-27T15:15:36.472Z,7.83
2022-09-27T15:18:04.768Z,9.13
2022-09-27T15:20:35.789Z,8.43
2022-09-27T15:23:05.187Z,8.60
2022-09-27T15:25:39.521Z,7.53
2022-09-27T15:28:10.969Z,7.43
2022-09-27T15:30:50.068Z,7.30
2022-09-27T15:33:36.089Z,6.77
2022-09-27T15:36:08.885Z,7.60
2022-09-27T15:38:47.498Z,6.73
2022-09-27T15:41:16.374Z,7.10
2022-09-27T15:43:51.684Z,7.30
2022-09-27T15:46:34.030Z,7.97
2022-09-27T15:49:19.522Z,8.37
2022-09-27T15:51:48.762Z,8.30
2022-09-27T15:54:22.766Z,8.43
2022-09-27T15:56:55.534Z,7.07
2022-09-27T15:59:32.253Z,6.90
2022-09-27T16:02:05.571Z,7.27
2022-09-27T16:04:35.134Z,7.83
2022-09-27T16:07:05.280Z,7.20
2022-09-27T16:09:32.329Z,6.87
2022-09-27T16:11:59.484Z,7.90
2022-09-27T16:14:26.808Z,8.30
2022-09-27T16:16:58.877Z,8.10
2022-09-27T16:19:37.185Z,7.57
2022-09-27T16:22:05.566Z,8.00
2022-09-27T16:24:32.977Z,9.23
2022-09-27T16:27:00.258Z,7.37
2022-09-27T16:29:27.401Z,8.63
2022-09-27T16:31:55.368Z,8.70
2022-09-27T16:34:22.381Z,9.63
2022-09-27T16:36:52.657Z,8.57
2022-09-27T16:39:19.675Z,10.53
2022-09-27T16:41:49.159Z,10.53
2022-09-27T16:44:19.324Z,9.60
2022-09-27T16:46:46.855Z,10.53
2022-09-27T16:49:33.175Z,9.27
2022-09-27T16:52:00.535Z,9.27
2022-09-27T16:54:31.448Z,9.23
2022-09-27T16:56:59.444Z,9.07
2022-09-27T16:59:27.309Z,8.50
2022-09-27T17:01:58.290Z,10.30
2022-09-27T17:04:27.813Z,11.70
2022-09-27T17:06:58.295Z,10.10
2022-09-27T17:09:25.455Z,9.23
2022-09-27T17:11:52.925Z,22.60
2022-09-27T17:14:19.904Z,10.90
2022-09-27T17:16:47.819Z,10.33
2022-09-27T17:19:16.562Z,9.27
2022-09-27T17:21:43.681Z,9.63
2022-09-27T17:24:11.581Z,9.47
2022-09-27T17:26:38.802Z,10.10
2022-09-27T17:29:05.848Z,8.77
2022-09-27T17:31:35.159Z,9.30
2022-09-27T17:34:02.738Z,9.50
2022-09-27T17:36:35.655Z,9.40
2022-09-27T17:39:03.507Z,8.53
2022-09-27T17:41:31.090Z,9.77
2022-09-27T17:44:00.391Z,9.70
2022-09-27T17:46:30.306Z,8.63
2022-09-27T17:49:16.027Z,8.43
2022-09-27T17:51:46.141Z,8.43
2022-09-27T17:54:14.208Z,9.50
2022-09-27T17:56:43.303Z,8.47
2022-09-27T17:59:11.505Z,8.63
2022-09-27T18:01:39.517Z,9.23
2022-09-27T18:04:11.703Z,8.07
2022-09-27T18:06:44.177Z,8.87
2022-09-27T18:09:13.154Z,8.03
2022-09-27T18:11:40.988Z,10.60
2022-09-27T18:14:10.442Z,8.20
2022-09-27T18:16:41.358Z,7.67
2022-09-27T18:19:11.265Z,7.60
2022-09-27T18:21:39.835Z,7.30
2022-09-27T18:24:07.675Z,7.23
2022-09-27T18:26:40.346Z,7.37
2022-09-27T18:29:14.159Z,7.20
2022-09-27T18:31:47.380Z,7.73
2022-09-27T18:34:19.035Z,7.60
2022-09-27T18:36:46.892Z,7.10
2022-09-27T18:39:19.113Z,8.23
2022-09-27T18:41:49.269Z,8.63
2022-09-27T18:44:18.018Z,7.20
2022-09-27T18:46:45.989Z,7.13
2022-09-27T18:49:14.675Z,7.57
2022-09-27T18:51:45.033Z,7.50
2022-09-27T18:54:18.550Z,6.80
2022-09-27T18:56:47.076Z,7.63
2022-09-27T18:59:14.245Z,7.13
2022-09-27T19:01:45.470Z,7.10
2022-09-27T19:04:17.529Z,7.27
2022-09-27T19:06:46.499Z,7.40
2022-09-27T19:09:13.564Z,7.23
2022-09-27T19:11:40.727Z,7.07
2022-09-27T19:14:07.859Z,6.63
2022-09-27T19:16:35.230Z,7.73
2022-09-27T19:19:02.274Z,7.77
2022-09-27T19:21:30.485Z,6.93
2022-09-27T19:23:57.843Z,7.60
2022-09-27T19:26:27.260Z,6.20
2022-09-27T19:28:54.817Z,7.10
2022-09-27T19:31:26.820Z,7.27
2022-09-27T19:33:59.697Z,7.80
2022-09-27T19:36:28.546Z,7.20
2022-09-27T19:38:58.672Z,6.97
2022-09-27T19:41:26.748Z,6.70
2022-09-27T19:43:55.283Z,7.10
2022-09-27T19:46:23.639Z,6.70
2022-09-27T19:48:51.453Z,6.97
2022-09-27T19:51:21.529Z,6.23
2022-09-27T19:53:48.762Z,6.20
2022-09-27T19:56:15.880Z,6.67
2022-09-27T19:58:44.121Z,6.57
2022-09-27T20:01:13.802Z,6.23
2022-09-27T20:03:43.501Z,6.03
2022-09-27T20:06:13.154Z,6.43
2022-09-27T20:08:40.701Z,6.40
2022-09-27T20:11:13.473Z,6.37
2022-09-27T20:13:40.935Z,6.60
2022-09-27T20:16:10.656Z,6.17
2022-09-27T20:18:43.351Z,5.97
2022-09-27T20:21:10.732Z,6.57
2022-09-27T20:23:38.706Z,6.80
2022-09-27T20:26:13.136Z,6.60
2022-09-27T20:28:48.020Z,6.10
2022-09-27T20:31:18.087Z,6.53
2022-09-27T20:33:46.786Z,6.93
2022-09-27T20:36:16.784Z,6.77
2022-09-27T20:38:45.834Z,5.97
2022-09-27T20:41:16.502Z,7.17
2022-09-27T20:43:44.079Z,7.17
2022-09-27T20:46:14.951Z,7.10
2022-09-27T20:48:42.673Z,6.50
2022-09-27T20:51:16.862Z,6.77
2022-09-27T20:53:45.252Z,6.17
2022-09-27T20:56:21.482Z,5.93
2022-09-27T20:58:49.812Z,6.87
2022-09-27T21:01:18.226Z,6.70
2022-09-27T21:03:45.755Z,6.20
2022-09-27T21:06:16.333Z,7.00
2022-09-27T21:08:43.534Z,7.10
2022-09-27T21:11:15.282Z,7.10
2022-09-27T21:13:43.591Z,6.97
2022-09-27T21:16:14.465Z,7.10
2022-09-27T21:18:42.366Z,7.50
2022-09-27T21:21:11.868Z,7.00
2022-09-27T21:23:44.284Z,6.23
2022-09-27T21:26:20.619Z,7.53
2022-09-27T21:28:53.389Z,6.37
2022-09-27T21:31:30.140Z,6.63
2022-09-27T21:33:59.506Z,7.23
2022-09-27T21:36:32.121Z,7.53
2022-09-27T21:38:59.645Z,6.63
2022-09-27T21:41:27.773Z,7.00
2022-09-27T21:43:55.482Z,7.53
2022-09-27T21:46:24.809Z,7.53
2022-09-27T21:48:55.516Z,7.03
2022-09-27T21:51:26.943Z,6.93
2022-09-27T21:53:56.335Z,8.30
2022-09-27T21:56:25.638Z,8.17
2022-09-27T21:58:52.970Z,6.73
2022-09-27T22:01:22.153Z,7.33
2022-09-27T22:03:50.543Z,7.10
2022-09-27T22:06:20.556Z,7.00
2022-09-27T22:08:48.831Z,7.10
2022-09-27T22:11:22.448Z,6.97
2022-09-27T22:13:49.662Z,6.43
2022-09-27T22:16:18.361Z,7.17
2022-09-27T22:18:50.897Z,7.30
2022-09-27T22:21:21.235Z,7.57
2022-09-27T22:23:48.545Z,7.00
2022-09-27T22:26:21.402Z,7.17
2022-09-27T22:28:48.640Z,7.60
2022-09-27T22:31:18.969Z,8.30
2022-09-27T22:33:54.661Z,8.00
2022-09-27T22:36:22.698Z,6.93
2022-09-27T22:38:49.960Z,8.00
2022-09-27T22:41:16.837Z,7.80
2022-09-27T22:43:44.320Z,7.27
2022-09-27T22:46:11.251Z,6.93
2022-09-27T22:48:38.302Z,7.40
2022-09-27T22:51:07.860Z,7.70
2022-09-27T22:53:35.641Z,8.70
2022-09-27T22:56:04.748Z,7.43
2022-09-27T22:58:32.418Z,7.43
2022-09-27T23:00:59.832Z,7.87
2022-09-27T23:03:27.203Z,7.90
2022-09-27T23:05:54.200Z,7.57
2022-09-27T23:08:21.717Z,6.97
2022-09-27T23:10:48.973Z,8.13
2022-09-27T23:13:15.984Z,8.17
2022-09-27T23:15:42.926Z,8.03
2022-09-27T23:18:10.349Z,8.10
2022-09-27T23:20:37.308Z,8.03
2022-09-27T23:23:04.260Z,7.80
2022-09-27T23:25:31.189Z,8.60
2022-09-27T23:27:58.331Z,9.00
2022-09-27T23:30:29.074Z,8.23
2022-09-27T23:32:58.382Z,7.60
2022-09-27T23:35:26.811Z,8.00
2022-09-27T23:38:00.081Z,9.03
2022-09-27T23:40:27.058Z,7.90
2022-09-27T23:42:54.053Z,8.33
2022-09-27T23:45:21.057Z,8.00
2022-09-27T23:47:48.060Z,9.07
2022-09-27T23:50:15.095Z,9.10
2022-09-27T23:52:42.151Z,9.17
2022-09-27T23:55:09.504Z,9.17
2022-09-27T23:57:36.440Z,9.00
